Search METAR Data

METAR Data for ENKR:

ENKR 241420Z 09009KT 9999 BKN048 05/M01 Q1015 RMK WIND 731FT 10011KT